sensor_id;sensor_type;location;lat;lon;timestamp;P1;durP1;ratioP1;P2;durP2;ratioP2
42978;SDS011;28616;44.746;19.678;2024-03-07T00:01:01;33.67;;;16.52;;
42978;SDS011;28616;44.746;19.678;2024-03-07T00:03:28;31.25;;;16.33;;
42978;SDS011;28616;44.746;19.678;2024-03-07T00:05:54;30.77;;;16.75;;
42978;SDS011;28616;44.746;19.678;2024-03-07T00:08:21;32.83;;;16.55;;
42978;SDS011;28616;44.746;19.678;2024-03-07T00:10:56;32.60;;;15.25;;
42978;SDS011;28616;44.746;19.678;2024-03-07T00:13:21;34.58;;;16.70;;
42978;SDS011;28616;44.746;19.678;2024-03-07T00:15:47;27.35;;;14.38;;
42978;SDS011;28616;44.746;19.678;2024-03-07T00:18:13;29.52;;;16.13;;
42978;SDS011;28616;44.746;19.678;2024-03-07T00:20:40;28.00;;;14.75;;
42978;SDS011;28616;44.746;19.678;2024-03-07T00:23:07;40.25;;;18.02;;
42978;SDS011;28616;44.746;19.678;2024-03-07T00:25:34;30.92;;;15.65;;
42978;SDS011;28616;44.746;19.678;2024-03-07T00:27:59;28.30;;;14.60;;
42978;SDS011;28616;44.746;19.678;2024-03-07T00:30:28;38.83;;;16.75;;
42978;SDS011;28616;44.746;19.678;2024-03-07T00:32:55;31.27;;;15.75;;
42978;SDS011;28616;44.746;19.678;2024-03-07T00:35:22;31.42;;;16.33;;
42978;SDS011;28616;44.746;19.678;2024-03-07T00:37:48;32.80;;;15.82;;
42978;SDS011;28616;44.746;19.678;2024-03-07T00:40:14;32.17;;;14.35;;
42978;SDS011;28616;44.746;19.678;2024-03-07T00:42:40;35.25;;;17.05;;
42978;SDS011;28616;44.746;19.678;2024-03-07T00:45:05;23.83;;;12.98;;
42978;SDS011;28616;44.746;19.678;2024-03-07T00:47:31;29.85;;;14.52;;
42978;SDS011;28616;44.746;19.678;2024-03-07T00:49:57;27.15;;;13.38;;
42978;SDS011;28616;44.746;19.678;2024-03-07T00:52:23;24.55;;;14.02;;
42978;SDS011;28616;44.746;19.678;2024-03-07T00:54:50;26.45;;;14.23;;
42978;SDS011;28616;44.746;19.678;2024-03-07T00:57:16;27.40;;;12.75;;
42978;SDS011;28616;44.746;19.678;2024-03-07T00:59:42;21.48;;;12.35;;
42978;SDS011;28616;44.746;19.678;2024-03-07T01:02:08;27.67;;;12.50;;
42978;SDS011;28616;44.746;19.678;2024-03-07T01:04:34;29.30;;;13.68;;
42978;SDS011;28616;44.746;19.678;2024-03-07T01:07:00;21.17;;;12.73;;
42978;SDS011;28616;44.746;19.678;2024-03-07T01:09:26;24.75;;;14.25;;
42978;SDS011;28616;44.746;19.678;2024-03-07T01:11:55;28.92;;;14.13;;
42978;SDS011;28616;44.746;19.678;2024-03-07T01:14:21;24.55;;;13.27;;
42978;SDS011;28616;44.746;19.678;2024-03-07T01:16:48;23.75;;;12.27;;
42978;SDS011;28616;44.746;19.678;2024-03-07T01:19:13;21.80;;;11.50;;
42978;SDS011;28616;44.746;19.678;2024-03-07T01:21:40;25.55;;;12.75;;
42978;SDS011;28616;44.746;19.678;2024-03-07T01:24:05;23.63;;;12.18;;
42978;SDS011;28616;44.746;19.678;2024-03-07T01:26:31;24.67;;;12.13;;
42978;SDS011;28616;44.746;19.678;2024-03-07T01:28:58;30.17;;;12.65;;
42978;SDS011;28616;44.746;19.678;2024-03-07T01:31:24;26.30;;;12.68;;
42978;SDS011;28616;44.746;19.678;2024-03-07T01:33:50;22.77;;;12.48;;
42978;SDS011;28616;44.746;19.678;2024-03-07T01:36:16;23.88;;;11.95;;
42978;SDS011;28616;44.746;19.678;2024-03-07T01:38:43;23.95;;;11.75;;
42978;SDS011;28616;44.746;19.678;2024-03-07T01:41:09;22.77;;;12.40;;
42978;SDS011;28616;44.746;19.678;2024-03-07T01:43:35;22.02;;;12.52;;
42978;SDS011;28616;44.746;19.678;2024-03-07T01:46:01;28.70;;;14.68;;
42978;SDS011;28616;44.746;19.678;2024-03-07T01:48:28;23.02;;;12.57;;
42978;SDS011;28616;44.746;19.678;2024-03-07T01:50:57;25.38;;;14.43;;
42978;SDS011;28616;44.746;19.678;2024-03-07T01:53:24;28.05;;;14.02;;
42978;SDS011;28616;44.746;19.678;2024-03-07T01:55:52;25.73;;;14.23;;
42978;SDS011;28616;44.746;19.678;2024-03-07T01:58:21;29.50;;;15.65;;
42978;SDS011;28616;44.746;19.678;2024-03-07T02:00:47;29.73;;;15.48;;
42978;SDS011;28616;44.746;19.678;2024-03-07T02:03:13;28.30;;;14.60;;
42978;SDS011;28616;44.746;19.678;2024-03-07T02:05:39;24.25;;;13.50;;
42978;SDS011;28616;44.746;19.678;2024-03-07T02:08:06;26.80;;;13.60;;
42978;SDS011;28616;44.746;19.678;2024-03-07T02:10:32;27.15;;;14.35;;
42978;SDS011;28616;44.746;19.678;2024-03-07T02:12:57;30.00;;;15.52;;
42978;SDS011;28616;44.746;19.678;2024-03-07T02:15:23;27.75;;;14.02;;
42978;SDS011;28616;44.746;19.678;2024-03-07T02:17:49;25.60;;;13.20;;
42978;SDS011;28616;44.746;19.678;2024-03-07T02:20:15;25.40;;;13.43;;
42978;SDS011;28616;44.746;19.678;2024-03-07T02:22:41;26.20;;;13.60;;
42978;SDS011;28616;44.746;19.678;2024-03-07T02:25:07;27.92;;;13.50;;
42978;SDS011;28616;44.746;19.678;2024-03-07T02:27:35;25.25;;;13.02;;
42978;SDS011;28616;44.746;19.678;2024-03-07T02:30:01;23.63;;;12.88;;
42978;SDS011;28616;44.746;19.678;2024-03-07T02:32:30;23.38;;;13.15;;
42978;SDS011;28616;44.746;19.678;2024-03-07T02:34:56;29.55;;;13.90;;
42978;SDS011;28616;44.746;19.678;2024-03-07T02:37:22;28.48;;;14.55;;
42978;SDS011;28616;44.746;19.678;2024-03-07T02:39:48;28.88;;;14.23;;
42978;SDS011;28616;44.746;19.678;2024-03-07T02:42:14;32.53;;;15.95;;
42978;SDS011;28616;44.746;19.678;2024-03-07T02:44:40;30.30;;;15.43;;
42978;SDS011;28616;44.746;19.678;2024-03-07T02:47:06;28.40;;;15.40;;
42978;SDS011;28616;44.746;19.678;2024-03-07T02:49:32;30.30;;;16.80;;
42978;SDS011;28616;44.746;19.678;2024-03-07T02:51:58;35.42;;;16.60;;
42978;SDS011;28616;44.746;19.678;2024-03-07T02:54:24;32.85;;;16.52;;
42978;SDS011;28616;44.746;19.678;2024-03-07T02:56:50;28.98;;;14.50;;
42978;SDS011;28616;44.746;19.678;2024-03-07T02:59:15;34.50;;;15.32;;
42978;SDS011;28616;44.746;19.678;2024-03-07T03:01:41;23.00;;;13.65;;
42978;SDS011;28616;44.746;19.678;2024-03-07T03:04:07;34.17;;;16.83;;
42978;SDS011;28616;44.746;19.678;2024-03-07T03:06:33;32.63;;;16.98;;
42978;SDS011;28616;44.746;19.678;2024-03-07T03:08:59;28.42;;;15.93;;
42978;SDS011;28616;44.746;19.678;2024-03-07T03:11:25;36.13;;;19.00;;
42978;SDS011;28616;44.746;19.678;2024-03-07T03:13:52;63.38;;;25.42;;
42978;SDS011;28616;44.746;19.678;2024-03-07T03:16:18;39.20;;;19.70;;
42978;SDS011;28616;44.746;19.678;2024-03-07T03:18:43;35.53;;;18.92;;
42978;SDS011;28616;44.746;19.678;2024-03-07T03:21:09;34.03;;;17.35;;
42978;SDS011;28616;44.746;19.678;2024-03-07T03:23:35;30.77;;;15.90;;
42978;SDS011;28616;44.746;19.678;2024-03-07T03:26:01;35.25;;;17.95;;
42978;SDS011;28616;44.746;19.678;2024-03-07T03:28:27;30.63;;;15.88;;
42978;SDS011;28616;44.746;19.678;2024-03-07T03:30:52;33.33;;;15.45;;
42978;SDS011;28616;44.746;19.678;2024-03-07T03:33:18;36.55;;;17.70;;
42978;SDS011;28616;44.746;19.678;2024-03-07T03:35:46;34.30;;;17.90;;
42978;SDS011;28616;44.746;19.678;2024-03-07T03:38:12;33.72;;;16.90;;
42978;SDS011;28616;44.746;19.678;2024-03-07T03:40:38;28.15;;;16.08;;
42978;SDS011;28616;44.746;19.678;2024-03-07T03:43:04;33.88;;;17.63;;
42978;SDS011;28616;44.746;19.678;2024-03-07T03:45:30;31.85;;;16.83;;
42978;SDS011;28616;44.746;19.678;2024-03-07T03:47:59;33.47;;;17.50;;
42978;SDS011;28616;44.746;19.678;2024-03-07T03:50:25;33.13;;;17.42;;
42978;SDS011;28616;44.746;19.678;2024-03-07T03:52:51;30.77;;;17.42;;
42978;SDS011;28616;44.746;19.678;2024-03-07T03:55:17;31.55;;;17.05;;
42978;SDS011;28616;44.746;19.678;2024-03-07T03:57:43;34.83;;;15.98;;
42978;SDS011;28616;44.746;19.678;2024-03-07T04:00:10;32.22;;;16.83;;
42978;SDS011;28616;44.746;19.678;2024-03-07T04:05:11;33.55;;;17.92;;
42978;SDS011;28616;44.746;19.678;2024-03-07T04:07:38;38.88;;;18.60;;
42978;SDS011;28616;44.746;19.678;2024-03-07T04:10:04;30.92;;;17.27;;
42978;SDS011;28616;44.746;19.678;2024-03-07T04:12:40;37.63;;;16.60;;
42978;SDS011;28616;44.746;19.678;2024-03-07T04:15:10;36.50;;;16.50;;
42978;SDS011;28616;44.746;19.678;2024-03-07T04:17:38;36.08;;;16.67;;
42978;SDS011;28616;44.746;19.678;2024-03-07T04:20:04;35.95;;;18.55;;
42978;SDS011;28616;44.746;19.678;2024-03-07T04:22:34;33.35;;;18.20;;
42978;SDS011;28616;44.746;19.678;2024-03-07T04:25:01;29.95;;;16.30;;
42978;SDS011;28616;44.746;19.678;2024-03-07T04:27:27;34.80;;;17.23;;
42978;SDS011;28616;44.746;19.678;2024-03-07T04:29:53;26.42;;;14.85;;
42978;SDS011;28616;44.746;19.678;2024-03-07T04:32:19;35.40;;;18.55;;
42978;SDS011;28616;44.746;19.678;2024-03-07T04:34:46;53.75;;;30.58;;
42978;SDS011;28616;44.746;19.678;2024-03-07T04:37:12;60.60;;;35.00;;
42978;SDS011;28616;44.746;19.678;2024-03-07T04:39:38;63.97;;;37.70;;
42978;SDS011;28616;44.746;19.678;2024-03-07T04:42:05;51.92;;;29.88;;
42978;SDS011;28616;44.746;19.678;2024-03-07T04:44:32;79.80;;;50.35;;
42978;SDS011;28616;44.746;19.678;2024-03-07T04:47:00;42.75;;;26.02;;
42978;SDS011;28616;44.746;19.678;2024-03-07T04:49:27;49.53;;;30.55;;
42978;SDS011;28616;44.746;19.678;2024-03-07T04:51:56;39.95;;;24.42;;
42978;SDS011;28616;44.746;19.678;2024-03-07T04:54:25;36.35;;;21.35;;
42978;SDS011;28616;44.746;19.678;2024-03-07T04:56:52;38.10;;;20.17;;
42978;SDS011;28616;44.746;19.678;2024-03-07T04:59:18;32.05;;;19.33;;
42978;SDS011;28616;44.746;19.678;2024-03-07T05:01:46;31.65;;;18.40;;
42978;SDS011;28616;44.746;19.678;2024-03-07T05:04:12;32.92;;;17.58;;
42978;SDS011;28616;44.746;19.678;2024-03-07T05:06:39;33.72;;;17.42;;
42978;SDS011;28616;44.746;19.678;2024-03-07T05:09:05;34.83;;;19.38;;
42978;SDS011;28616;44.746;19.678;2024-03-07T05:11:33;46.65;;;26.55;;
42978;SDS011;28616;44.746;19.678;2024-03-07T05:14:00;39.78;;;23.90;;
42978;SDS011;28616;44.746;19.678;2024-03-07T05:16:30;32.88;;;20.95;;
42978;SDS011;28616;44.746;19.678;2024-03-07T05:18:59;34.15;;;19.67;;
42978;SDS011;28616;44.746;19.678;2024-03-07T05:21:25;28.92;;;18.33;;
42978;SDS011;28616;44.746;19.678;2024-03-07T05:23:57;37.83;;;20.90;;
42978;SDS011;28616;44.746;19.678;2024-03-07T05:26:24;42.40;;;21.55;;
42978;SDS011;28616;44.746;19.678;2024-03-07T05:28:50;36.28;;;19.52;;
42978;SDS011;28616;44.746;19.678;2024-03-07T05:31:16;35.13;;;19.17;;
42978;SDS011;28616;44.746;19.678;2024-03-07T05:33:43;37.00;;;20.45;;
42978;SDS011;28616;44.746;19.678;2024-03-07T05:36:09;39.00;;;20.90;;
42978;SDS011;28616;44.746;19.678;2024-03-07T05:38:41;49.75;;;29.23;;
42978;SDS011;28616;44.746;19.678;2024-03-07T05:41:13;47.35;;;26.13;;
42978;SDS011;28616;44.746;19.678;2024-03-07T05:43:39;53.42;;;27.00;;
42978;SDS011;28616;44.746;19.678;2024-03-07T05:46:05;60.25;;;32.20;;
42978;SDS011;28616;44.746;19.678;2024-03-07T05:48:35;59.13;;;33.15;;
42978;SDS011;28616;44.746;19.678;2024-03-07T05:53:31;77.00;;;39.85;;
42978;SDS011;28616;44.746;19.678;2024-03-07T05:55:56;107.75;;;53.85;;
42978;SDS011;28616;44.746;19.678;2024-03-07T05:58:22;92.03;;;48.13;;
42978;SDS011;28616;44.746;19.678;2024-03-07T06:00:48;92.45;;;50.88;;
42978;SDS011;28616;44.746;19.678;2024-03-07T06:03:21;87.30;;;44.33;;
42978;SDS011;28616;44.746;19.678;2024-03-07T06:05:49;73.15;;;36.92;;
42978;SDS011;28616;44.746;19.678;2024-03-07T06:08:16;93.00;;;45.78;;
42978;SDS011;28616;44.746;19.678;2024-03-07T06:10:43;78.68;;;39.72;;
42978;SDS011;28616;44.746;19.678;2024-03-07T06:13:10;97.05;;;44.25;;
42978;SDS011;28616;44.746;19.678;2024-03-07T06:15:37;102.93;;;48.80;;
42978;SDS011;28616;44.746;19.678;2024-03-07T06:18:07;116.53;;;53.92;;
42978;SDS011;28616;44.746;19.678;2024-03-07T06:20:33;92.30;;;46.03;;
42978;SDS011;28616;44.746;19.678;2024-03-07T06:23:00;88.47;;;46.40;;
42978;SDS011;28616;44.746;19.678;2024-03-07T06:25:30;95.63;;;49.80;;
42978;SDS011;28616;44.746;19.678;2024-03-07T06:28:05;148.32;;;62.08;;
42978;SDS011;28616;44.746;19.678;2024-03-07T06:30:35;105.10;;;52.05;;
42978;SDS011;28616;44.746;19.678;2024-03-07T06:33:10;98.78;;;48.80;;
42978;SDS011;28616;44.746;19.678;2024-03-07T06:35:38;123.18;;;59.28;;
42978;SDS011;28616;44.746;19.678;2024-03-07T06:38:11;88.32;;;47.08;;
42978;SDS011;28616;44.746;19.678;2024-03-07T06:40:37;88.60;;;45.20;;
42978;SDS011;28616;44.746;19.678;2024-03-07T06:43:10;77.18;;;40.25;;
42978;SDS011;28616;44.746;19.678;2024-03-07T06:45:36;81.38;;;43.13;;
42978;SDS011;28616;44.746;19.678;2024-03-07T06:48:05;96.53;;;49.58;;
42978;SDS011;28616;44.746;19.678;2024-03-07T06:50:35;66.18;;;35.90;;
42978;SDS011;28616;44.746;19.678;2024-03-07T06:53:02;84.00;;;43.83;;
42978;SDS011;28616;44.746;19.678;2024-03-07T06:55:28;94.32;;;49.35;;
42978;SDS011;28616;44.746;19.678;2024-03-07T06:57:54;148.18;;;71.30;;
42978;SDS011;28616;44.746;19.678;2024-03-07T07:00:20;124.88;;;59.83;;
42978;SDS011;28616;44.746;19.678;2024-03-07T07:02:47;121.75;;;56.92;;
42978;SDS011;28616;44.746;19.678;2024-03-07T07:05:13;122.05;;;52.60;;
42978;SDS011;28616;44.746;19.678;2024-03-07T07:07:46;150.13;;;69.63;;
42978;SDS011;28616;44.746;19.678;2024-03-07T07:10:13;183.20;;;79.82;;
42978;SDS011;28616;44.746;19.678;2024-03-07T07:12:43;148.57;;;65.38;;
42978;SDS011;28616;44.746;19.678;2024-03-07T07:15:14;115.28;;;54.72;;
42978;SDS011;28616;44.746;19.678;2024-03-07T07:17:41;165.05;;;80.63;;
42978;SDS011;28616;44.746;19.678;2024-03-07T07:20:12;131.50;;;65.18;;
42978;SDS011;28616;44.746;19.678;2024-03-07T07:22:45;121.50;;;56.25;;
42978;SDS011;28616;44.746;19.678;2024-03-07T07:25:13;109.88;;;53.25;;
42978;SDS011;28616;44.746;19.678;2024-03-07T07:27:49;127.88;;;55.35;;
42978;SDS011;28616;44.746;19.678;2024-03-07T07:30:17;127.10;;;58.92;;
42978;SDS011;28616;44.746;19.678;2024-03-07T07:32:43;133.25;;;56.28;;
42978;SDS011;28616;44.746;19.678;2024-03-07T07:35:10;120.72;;;55.15;;
42978;SDS011;28616;44.746;19.678;2024-03-07T07:37:38;106.70;;;46.42;;
42978;SDS011;28616;44.746;19.678;2024-03-07T07:40:05;99.47;;;44.90;;
42978;SDS011;28616;44.746;19.678;2024-03-07T07:42:34;103.15;;;45.33;;
42978;SDS011;28616;44.746;19.678;2024-03-07T07:45:06;92.75;;;41.80;;
42978;SDS011;28616;44.746;19.678;2024-03-07T07:47:39;83.90;;;39.03;;
42978;SDS011;28616;44.746;19.678;2024-03-07T07:50:08;77.35;;;35.55;;
42978;SDS011;28616;44.746;19.678;2024-03-07T07:52:45;65.95;;;31.00;;
42978;SDS011;28616;44.746;19.678;2024-03-07T07:55:16;81.95;;;37.60;;
42978;SDS011;28616;44.746;19.678;2024-03-07T07:57:43;74.25;;;32.55;;
42978;SDS011;28616;44.746;19.678;2024-03-07T08:00:13;71.53;;;33.00;;
42978;SDS011;28616;44.746;19.678;2024-03-07T08:02:50;91.88;;;45.13;;
42978;SDS011;28616;44.746;19.678;2024-03-07T08:05:21;110.05;;;51.42;;
42978;SDS011;28616;44.746;19.678;2024-03-07T08:07:51;106.03;;;49.67;;
42978;SDS011;28616;44.746;19.678;2024-03-07T08:10:20;122.65;;;56.28;;
42978;SDS011;28616;44.746;19.678;2024-03-07T08:12:48;135.93;;;59.88;;
42978;SDS011;28616;44.746;19.678;2024-03-07T08:15:14;136.88;;;62.75;;
42978;SDS011;28616;44.746;19.678;2024-03-07T08:17:44;104.72;;;48.08;;
42978;SDS011;28616;44.746;19.678;2024-03-07T08:20:12;105.97;;;50.87;;
42978;SDS011;28616;44.746;19.678;2024-03-07T08:22:43;63.45;;;33.35;;
42978;SDS011;28616;44.746;19.678;2024-03-07T08:25:13;116.80;;;52.25;;
42978;SDS011;28616;44.746;19.678;2024-03-07T08:27:40;79.78;;;39.05;;
42978;SDS011;28616;44.746;19.678;2024-03-07T08:30:07;100.97;;;46.80;;
42978;SDS011;28616;44.746;19.678;2024-03-07T08:35:12;143.23;;;53.33;;
42978;SDS011;28616;44.746;19.678;2024-03-07T08:37:38;94.53;;;41.58;;
42978;SDS011;28616;44.746;19.678;2024-03-07T08:40:05;54.88;;;27.13;;
42978;SDS011;28616;44.746;19.678;2024-03-07T08:42:38;51.63;;;25.92;;
42978;SDS011;28616;44.746;19.678;2024-03-07T08:45:06;78.47;;;33.15;;
42978;SDS011;28616;44.746;19.678;2024-03-07T08:47:35;90.95;;;39.28;;
42978;SDS011;28616;44.746;19.678;2024-03-07T08:50:03;69.18;;;34.15;;
42978;SDS011;28616;44.746;19.678;2024-03-07T08:52:33;51.42;;;26.27;;
42978;SDS011;28616;44.746;19.678;2024-03-07T08:55:03;64.88;;;29.55;;
42978;SDS011;28616;44.746;19.678;2024-03-07T08:57:30;60.13;;;28.35;;
42978;SDS011;28616;44.746;19.678;2024-03-07T08:59:56;47.63;;;24.45;;
42978;SDS011;28616;44.746;19.678;2024-03-07T09:02:22;49.05;;;25.38;;
42978;SDS011;28616;44.746;19.678;2024-03-07T09:04:48;58.95;;;29.05;;
42978;SDS011;28616;44.746;19.678;2024-03-07T09:07:14;57.05;;;28.05;;
42978;SDS011;28616;44.746;19.678;2024-03-07T09:09:40;45.55;;;22.65;;
42978;SDS011;28616;44.746;19.678;2024-03-07T09:12:10;40.80;;;20.80;;
42978;SDS011;28616;44.746;19.678;2024-03-07T09:14:36;43.88;;;21.85;;
42978;SDS011;28616;44.746;19.678;2024-03-07T09:17:02;41.75;;;21.00;;
42978;SDS011;28616;44.746;19.678;2024-03-07T09:19:30;58.13;;;24.50;;
42978;SDS011;28616;44.746;19.678;2024-03-07T09:21:56;59.42;;;26.40;;
42978;SDS011;28616;44.746;19.678;2024-03-07T09:24:22;88.20;;;38.17;;
42978;SDS011;28616;44.746;19.678;2024-03-07T09:26:51;90.22;;;43.13;;
42978;SDS011;28616;44.746;19.678;2024-03-07T09:29:19;58.75;;;29.85;;
42978;SDS011;28616;44.746;19.678;2024-03-07T09:31:48;45.95;;;24.67;;
42978;SDS011;28616;44.746;19.678;2024-03-07T09:34:17;47.85;;;25.60;;
42978;SDS011;28616;44.746;19.678;2024-03-07T09:36:43;60.55;;;28.85;;
42978;SDS011;28616;44.746;19.678;2024-03-07T09:39:09;59.88;;;28.05;;
42978;SDS011;28616;44.746;19.678;2024-03-07T09:41:37;58.33;;;26.80;;
42978;SDS011;28616;44.746;19.678;2024-03-07T09:44:08;121.65;;;42.85;;
42978;SDS011;28616;44.746;19.678;2024-03-07T09:46:37;75.13;;;30.27;;
42978;SDS011;28616;44.746;19.678;2024-03-07T09:49:03;59.22;;;27.33;;
42978;SDS011;28616;44.746;19.678;2024-03-07T09:51:34;69.38;;;35.13;;
42978;SDS011;28616;44.746;19.678;2024-03-07T09:54:00;50.60;;;24.33;;
42978;SDS011;28616;44.746;19.678;2024-03-07T09:56:27;58.03;;;26.33;;
42978;SDS011;28616;44.746;19.678;2024-03-07T09:58:56;49.78;;;25.38;;
42978;SDS011;28616;44.746;19.678;2024-03-07T10:01:25;42.35;;;21.90;;
42978;SDS011;28616;44.746;19.678;2024-03-07T10:03:58;35.33;;;18.80;;
42978;SDS011;28616;44.746;19.678;2024-03-07T10:06:43;45.53;;;24.02;;
42978;SDS011;28616;44.746;19.678;2024-03-07T10:09:12;41.83;;;23.02;;
42978;SDS011;28616;44.746;19.678;2024-03-07T10:11:42;50.50;;;25.58;;
42978;SDS011;28616;44.746;19.678;2024-03-07T10:14:11;38.40;;;21.30;;
42978;SDS011;28616;44.746;19.678;2024-03-07T10:16:37;44.38;;;22.60;;
42978;SDS011;28616;44.746;19.678;2024-03-07T10:19:06;66.32;;;29.75;;
